Terminal Aerodrome Forecast
Issued by NWS Topeka, KS

Home | Current Version | Previous Version | Graphics & Text | Print | Product List | Glossary On
Versions: 1 2 3 4 5 6 7 8 9 10 11 12 13 14 15 16 17 18 19 20 21 22
000
FTUS43 KTOP 251700
TAFTOP
TAF
KTOP 251720Z 2518/2618 24005KT P6SM SCT100
     FM251900 16007KT P6SM FEW080
     FM260400 VRB04KT P6SM FEW100=

USA.gov is the U.S. government's official web portal to all federal, state and local government web resources and services.